createdAt,value
2019-02-05T00:00:29.580Z,2.31
2019-02-05T00:01:28.238Z,2.25
2019-02-05T00:02:28.327Z,2.27
2019-02-05T00:03:28.346Z,2.24
2019-02-05T00:04:28.352Z,2.21
2019-02-05T00:05:28.118Z,2.2
2019-02-05T00:06:28.170Z,2.2
2019-02-05T00:07:28.322Z,2.21
2019-02-05T00:08:30.615Z,2.23
2019-02-05T00:09:28.207Z,2.24
2019-02-05T00:10:28.200Z,2.24
2019-02-05T00:11:28.098Z,2.25
2019-02-05T00:12:28.169Z,2.25
2019-02-05T00:13:28.160Z,2.26
2019-02-05T00:14:28.093Z,2.29
2019-02-05T00:15:28.104Z,2.28
2019-02-05T00:16:30.719Z,2.26
2019-02-05T00:17:28.146Z,2.29
2019-02-05T00:18:28.120Z,2.25
2019-02-05T00:19:28.115Z,2.29
2019-02-05T00:20:28.214Z,2.26
2019-02-05T00:21:28.143Z,2.25
2019-02-05T00:22:28.772Z,2.29
2019-02-05T00:23:28.370Z,2.3
2019-02-05T00:24:28.181Z,2.29
2019-02-05T00:25:28.139Z,2.3
2019-02-05T00:26:28.126Z,2.29
2019-02-05T00:27:28.271Z,2.3
2019-02-05T00:28:28.195Z,2.3
2019-02-05T00:29:28.316Z,2.31
2019-02-05T00:30:28.220Z,2.3
2019-02-05T00:31:28.532Z,2.29
2019-02-05T00:32:28.326Z,2.26
2019-02-05T00:33:28.347Z,2.25
2019-02-05T00:34:28.283Z,2.24
2019-02-05T00:35:28.024Z,2.24
2019-02-05T00:36:28.134Z,2.25
2019-02-05T00:37:28.604Z,2.26
2019-02-05T00:38:28.614Z,2.26
2019-02-05T00:39:30.544Z,2.24
2019-02-05T00:40:28.132Z,2.28
2019-02-05T00:41:29.861Z,2.26
2019-02-05T00:42:28.506Z,2.29
2019-02-05T00:43:28.112Z,2.27
2019-02-05T00:44:28.092Z,2.29
2019-02-05T00:45:27.977Z,2.29
2019-02-05T00:46:28.011Z,2.31
2019-02-05T00:47:32.807Z,2.29
2019-02-05T00:48:28.000Z,2.29
2019-02-05T00:49:28.347Z,2.29
2019-02-05T00:50:28.086Z,2.26
2019-02-05T00:51:28.384Z,2.27
2019-02-05T00:52:28.375Z,2.25
2019-02-05T00:53:29.512Z,2.24
2019-02-05T00:54:28.124Z,2.24
2019-02-05T00:55:30.616Z,2.24
2019-02-05T00:56:28.285Z,2.21
2019-02-05T00:57:28.117Z,2.18
2019-02-05T00:58:28.245Z,2.16
2019-02-05T00:59:28.109Z,2.16
2019-02-05T01:00:28.364Z,2.17
2019-02-05T01:01:28.445Z,2.17
2019-02-05T01:02:28.120Z,2.15
2019-02-05T01:03:30.362Z,2.15
2019-02-05T01:04:28.247Z,2.11
2019-02-05T01:05:28.243Z,2.1
2019-02-05T01:06:28.034Z,2.1
2019-02-05T01:07:28.262Z,2.07
2019-02-05T01:08:28.000Z,2.09
2019-02-05T01:09:27.985Z,2.08
2019-02-05T01:10:30.116Z,2.11
2019-02-05T01:11:28.182Z,2.09
2019-02-05T01:12:28.403Z,2.1
2019-02-05T01:13:28.916Z,2.11
2019-02-05T01:14:28.213Z,2.12
2019-02-05T01:15:28.377Z,2.1
2019-02-05T01:16:28.000Z,2.12
2019-02-05T01:17:28.025Z,2.1
2019-02-05T01:18:30.050Z,2.12
2019-02-05T01:19:28.115Z,2.1
2019-02-05T01:20:27.974Z,2.1
2019-02-05T01:21:28.240Z,2.08
2019-02-05T01:22:28.252Z,2.06
2019-02-05T01:23:27.984Z,2.07
2019-02-05T01:24:27.924Z,2.07
2019-02-05T01:25:28.159Z,2.07
2019-02-05T01:26:32.731Z,2.08
2019-02-05T01:27:28.396Z,2.08
2019-02-05T01:28:28.205Z,2.08
2019-02-05T01:29:29.310Z,2.1
2019-02-05T01:30:27.944Z,2.11
2019-02-05T01:31:28.409Z,2.1
2019-02-05T01:32:28.319Z,2.09
2019-02-05T01:33:27.925Z,2.07
2019-02-05T01:34:30.977Z,2.09
2019-02-05T01:35:28.088Z,2.07
2019-02-05T01:36:28.176Z,2.06
2019-02-05T01:37:27.909Z,2.06
2019-02-05T01:38:28.045Z,2.07
2019-02-05T01:39:28.091Z,2.05
2019-02-05T01:40:29.533Z,2.02
2019-02-05T01:41:28.114Z,2.02
2019-02-05T01:42:28.509Z,1.99
2019-02-05T01:43:28.286Z,1.96
2019-02-05T01:44:27.908Z,1.9
2019-02-05T01:45:27.925Z,1.92
2019-02-05T01:46:28.427Z,1.94
2019-02-05T01:47:28.000Z,1.94
2019-02-05T01:48:27.896Z,1.93
2019-02-05T01:49:29.668Z,1.93
2019-02-05T01:50:28.002Z,1.91
2019-02-05T01:51:28.166Z,1.86
2019-02-05T01:52:28.437Z,1.84
2019-02-05T01:53:27.935Z,1.84
2019-02-05T01:54:27.882Z,1.83
2019-02-05T01:55:27.998Z,1.82
2019-02-05T01:56:27.892Z,1.82
2019-02-05T01:57:30.103Z,1.82
2019-02-05T01:58:27.877Z,1.82
2019-02-05T01:59:27.877Z,1.79
2019-02-05T02:00:31.360Z,1.81
2019-02-05T02:01:27.860Z,1.79
2019-02-05T02:02:28.044Z,1.79
2019-02-05T02:03:28.092Z,1.76
2019-02-05T02:04:28.337Z,1.76
2019-02-05T02:05:30.692Z,1.75
2019-02-05T02:06:28.250Z,1.74
2019-02-05T02:07:28.129Z,1.7
2019-02-05T02:08:28.351Z,1.7
2019-02-05T02:09:27.928Z,1.67
2019-02-05T02:10:28.173Z,1.64
2019-02-05T02:11:28.178Z,1.64
2019-02-05T02:12:28.501Z,1.61
2019-02-05T02:13:28.124Z,1.57
2019-02-05T02:14:27.984Z,1.55
2019-02-05T02:15:28.132Z,1.53
2019-02-05T02:16:27.871Z,1.53
2019-02-05T02:17:27.955Z,1.52
2019-02-05T02:18:28.221Z,1.52
2019-02-05T02:19:28.199Z,1.5
2019-02-05T02:20:30.253Z,1.52
2019-02-05T02:21:28.196Z,1.51
2019-02-05T02:22:27.887Z,1.5
2019-02-05T02:23:27.924Z,1.43
2019-02-05T02:24:28.160Z,1.4
2019-02-05T02:25:28.284Z,1.39
2019-02-05T02:26:28.170Z,1.39
2019-02-05T02:27:27.944Z,1.43
2019-02-05T02:28:30.736Z,1.4
2019-02-05T02:29:28.094Z,1.4
2019-02-05T02:30:27.959Z,1.41
2019-02-05T02:31:27.975Z,1.38
2019-02-05T02:32:27.868Z,1.41
2019-02-05T02:33:27.921Z,1.38
2019-02-05T02:34:28.233Z,1.37
2019-02-05T02:35:28.258Z,1.37
2019-02-05T02:36:28.143Z,1.36
2019-02-05T02:37:28.223Z,1.36
2019-02-05T02:38:27.863Z,1.34
2019-02-05T02:39:28.546Z,1.32
2019-02-05T02:40:28.041Z,1.31
2019-02-05T02:41:27.901Z,1.31
2019-02-05T02:42:27.961Z,1.31
2019-02-05T02:43:29.287Z,1.28
2019-02-05T02:44:27.937Z,1.28
2019-02-05T02:45:28.219Z,1.27
2019-02-05T02:46:27.840Z,1.26
2019-02-05T02:47:28.282Z,1.26
2019-02-05T02:48:27.803Z,1.26
2019-02-05T02:49:27.807Z,1.26
2019-02-05T02:50:28.255Z,1.26
2019-02-05T02:51:30.049Z,1.24
2019-02-05T02:52:27.911Z,1.25
2019-02-05T02:53:28.486Z,1.24
2019-02-05T02:54:27.833Z,1.24
2019-02-05T02:55:27.893Z,1.24
2019-02-05T02:56:27.906Z,1.21
2019-02-05T02:57:28.922Z,1.2
2019-02-05T02:58:28.244Z,1.19
2019-02-05T02:59:30.513Z,1.19
2019-02-05T03:00:28.228Z,1.18
2019-02-05T03:01:27.894Z,1.17
2019-02-05T03:02:28.330Z,1.15
2019-02-05T03:03:27.860Z,1.14
2019-02-05T03:04:28.267Z,1.14
2019-02-05T03:05:28.468Z,1.14
2019-02-05T03:06:30.822Z,1.14
2019-02-05T03:07:27.850Z,1.11
2019-02-05T03:08:27.972Z,1.07
2019-02-05T03:09:28.192Z,1.09
2019-02-05T03:10:28.130Z,1.07
2019-02-05T03:11:27.794Z,1.07
2019-02-05T03:12:27.886Z,1.06
2019-02-05T03:13:28.712Z,1.05
2019-02-05T03:14:27.898Z,1.01
2019-02-05T03:15:28.017Z,0.99
2019-02-05T03:16:27.828Z,1
2019-02-05T03:17:27.929Z,0.97
2019-02-05T03:18:28.047Z,0.95
2019-02-05T03:19:27.852Z,0.95
2019-02-05T03:20:28.659Z,0.95
2019-02-05T03:21:27.874Z,0.94
2019-02-05T03:22:28.006Z,0.93
2019-02-05T03:23:28.123Z,0.91
2019-02-05T03:24:27.889Z,0.84
2019-02-05T03:25:27.870Z,0.84
2019-02-05T03:26:27.841Z,0.86
2019-02-05T03:27:27.871Z,0.84
2019-02-05T03:28:28.034Z,0.83
2019-02-05T03:29:27.898Z,0.81
2019-02-05T03:30:27.915Z,0.81
2019-02-05T03:31:28.050Z,0.81
2019-02-05T03:32:27.839Z,0.8
2019-02-05T03:33:27.979Z,0.82
2019-02-05T03:34:27.936Z,0.81
2019-02-05T03:35:30.102Z,0.81
2019-02-05T03:36:27.828Z,0.82
2019-02-05T03:37:27.777Z,0.81
2019-02-05T03:38:27.816Z,0.8
2019-02-05T03:39:27.755Z,0.8
2019-02-05T03:40:27.791Z,0.79
2019-02-05T03:41:28.395Z,0.76
2019-02-05T03:42:29.667Z,0.78
2019-02-05T03:43:28.054Z,0.75
2019-02-05T03:44:28.044Z,0.75
2019-02-05T03:45:28.479Z,0.74
2019-02-05T03:46:28.009Z,0.71
2019-02-05T03:47:27.822Z,0.68
2019-02-05T03:48:28.011Z,0.64
2019-02-05T03:49:28.325Z,0.62
2019-02-05T03:50:27.838Z,0.58
2019-02-05T03:51:28.437Z,0.58
2019-02-05T03:52:27.864Z,0.58
2019-02-05T03:53:28.114Z,0.56
2019-02-05T03:54:28.391Z,0.58
2019-02-05T03:55:28.073Z,0.57
2019-02-05T03:56:28.200Z,0.58
2019-02-05T03:57:32.771Z,0.53
2019-02-05T03:58:27.822Z,0.51
2019-02-05T03:59:27.747Z,0.51
2019-02-05T04:00:29.623Z,0.52
2019-02-05T04:01:27.902Z,0.52
2019-02-05T04:02:27.817Z,0.5
2019-02-05T04:03:28.016Z,0.49
2019-02-05T04:04:27.717Z,0.47
2019-02-05T04:05:34.223Z,0.5
2019-02-05T04:06:27.725Z,0.45
2019-02-05T04:07:27.981Z,0.46
2019-02-05T04:08:27.954Z,0.46
2019-02-05T04:09:28.014Z,0.42
2019-02-05T04:10:28.074Z,0.42
2019-02-05T04:11:27.706Z,0.41
2019-02-05T04:12:29.595Z,0.43
2019-02-05T04:13:28.400Z,0.44
2019-02-05T04:14:27.913Z,0.45
2019-02-05T04:15:27.897Z,0.44
2019-02-05T04:16:27.760Z,0.44
2019-02-05T04:17:27.801Z,0.44
2019-02-05T04:18:27.685Z,0.44
2019-02-05T04:19:27.685Z,0.41
2019-02-05T04:20:30.020Z,0.36
2019-02-05T04:21:28.015Z,0.35
2019-02-05T04:22:27.889Z,0.35
2019-02-05T04:23:27.889Z,0.36
2019-02-05T04:24:27.750Z,0.31
2019-02-05T04:25:27.739Z,0.32
2019-02-05T04:26:27.794Z,0.3
2019-02-05T04:27:27.845Z,0.31
2019-02-05T04:28:30.781Z,0.3
2019-02-05T04:29:27.687Z,0.27
2019-02-05T04:30:27.759Z,0.31
2019-02-05T04:31:27.703Z,0.3
2019-02-05T04:32:27.786Z,0.29
2019-02-05T04:33:27.852Z,0.29
2019-02-05T04:34:28.599Z,0.26
2019-02-05T04:35:28.384Z,0.25
2019-02-05T04:36:28.724Z,0.23
2019-02-05T04:37:28.668Z,0.19
2019-02-05T04:38:27.797Z,0.18
2019-02-05T04:39:27.724Z,0.21
2019-02-05T04:40:27.866Z,0.21
2019-02-05T04:41:27.891Z,0.22
2019-02-05T04:42:27.739Z,0.21
2019-02-05T04:43:30.279Z,0.21
2019-02-05T04:44:27.778Z,0.21
2019-02-05T04:45:34.749Z,0.23
2019-02-05T04:46:27.714Z,0.24
2019-02-05T04:47:27.753Z,0.2
2019-02-05T04:48:27.798Z,0.25
2019-02-05T04:49:27.936Z,0.22
2019-02-05T04:50:27.877Z,0.21
2019-02-05T04:51:30.485Z,0.2
2019-02-05T04:52:27.763Z,0.15
2019-02-05T04:53:27.729Z,0.15
2019-02-05T04:54:27.785Z,0.15
2019-02-05T04:55:27.837Z,0.16
2019-02-05T04:56:27.902Z,0.17
2019-02-05T04:57:27.854Z,0.2
2019-02-05T04:58:28.430Z,0.2
2019-02-05T04:59:27.644Z,0.2
2019-02-05T05:00:27.879Z,0.25
2019-02-05T05:01:27.881Z,0.21
2019-02-05T05:02:27.683Z,0.23
2019-02-05T05:03:27.695Z,0.2
2019-02-05T05:04:27.718Z,0.2
2019-02-05T05:05:27.656Z,0.19
2019-02-05T05:06:29.814Z,0.19
2019-02-05T05:07:27.619Z,0.18
2019-02-05T05:08:27.939Z,0.17
2019-02-05T05:09:27.671Z,0.13
2019-02-05T05:10:27.655Z,0.12
2019-02-05T05:11:27.711Z,0.08
2019-02-05T05:12:27.776Z,0.1
2019-02-05T05:13:27.752Z,0.11
2019-02-05T05:14:34.309Z,0.12
2019-02-05T05:15:27.898Z,0.11
2019-02-05T05:16:27.666Z,0.1
2019-02-05T05:17:27.837Z,0.06
2019-02-05T05:18:27.642Z,0.06
2019-02-05T05:19:27.666Z,0.03
2019-02-05T05:20:27.582Z,0.05
2019-02-05T05:21:30.016Z,0.05
2019-02-05T05:22:27.718Z,0.04
2019-02-05T05:23:27.759Z,0.01
2019-02-05T05:24:27.697Z,0.04
2019-02-05T05:25:27.748Z,0.05
2019-02-05T05:26:27.800Z,0.01
2019-02-05T05:27:27.498Z,0
2019-02-05T05:28:28.904Z,-0.02
2019-02-05T05:29:27.952Z,-0.04
2019-02-05T05:30:27.886Z,-0.05
2019-02-05T05:31:27.919Z,-0.06
2019-02-05T05:32:27.835Z,-0.07
2019-02-05T05:33:28.124Z,-0.12
2019-02-05T05:34:27.724Z,-0.1
2019-02-05T05:35:44.905Z,-0.07
2019-02-05T05:36:30.250Z,-0.06
2019-02-05T05:37:27.782Z,-0.06
2019-02-05T05:38:28.356Z,-0.12
2019-02-05T05:39:27.866Z,-0.08
2019-02-05T05:40:27.857Z,-0.11
2019-02-05T05:41:28.698Z,-0.12
2019-02-05T05:42:27.637Z,-0.14
2019-02-05T05:43:29.545Z,-0.13
2019-02-05T05:44:27.912Z,-0.14
2019-02-05T05:45:27.632Z,-0.13
2019-02-05T05:46:27.653Z,-0.12
2019-02-05T05:47:27.835Z,-0.15
2019-02-05T05:48:27.700Z,-0.14
2019-02-05T05:49:28.361Z,-0.17
2019-02-05T05:50:27.741Z,-0.17
2019-02-05T05:51:30.715Z,-0.17
2019-02-05T05:52:27.600Z,-0.18
2019-02-05T05:53:27.715Z,-0.16
2019-02-05T05:54:28.455Z,-0.17
2019-02-05T05:55:27.650Z,-0.18
2019-02-05T05:56:27.849Z,-0.18
2019-02-05T05:57:27.691Z,-0.16
2019-02-05T05:58:29.643Z,-0.15
2019-02-05T05:59:28.020Z,-0.16
2019-02-05T06:00:27.642Z,-0.15
2019-02-05T06:01:27.541Z,-0.17
2019-02-05T06:02:27.925Z,-0.12
2019-02-05T06:03:28.535Z,-0.12
2019-02-05T06:04:27.823Z,-0.12
2019-02-05T06:05:27.712Z,-0.12
2019-02-05T06:06:27.700Z,-0.17
2019-02-05T06:07:27.685Z,-0.16
2019-02-05T06:08:28.252Z,-0.19
2019-02-05T06:09:27.587Z,-0.18
2019-02-05T06:10:27.724Z,-0.21
2019-02-05T06:11:27.591Z,-0.22
2019-02-05T06:12:28.490Z,-0.22
2019-02-05T06:13:29.850Z,-0.18
2019-02-05T06:14:28.211Z,-0.17
2019-02-05T06:15:27.708Z,-0.13
2019-02-05T06:16:28.114Z,-0.12
2019-02-05T06:17:27.864Z,-0.11
2019-02-05T06:18:28.735Z,-0.09
2019-02-05T06:19:27.598Z,-0.13
2019-02-05T06:20:27.805Z,-0.13
2019-02-05T06:21:28.027Z,-0.15
2019-02-05T06:22:27.670Z,-0.15
2019-02-05T06:23:27.803Z,-0.18
2019-02-05T06:24:27.769Z,-0.21
2019-02-05T06:25:27.671Z,-0.22
2019-02-05T06:26:27.890Z,-0.23
2019-02-05T06:27:27.529Z,-0.25
2019-02-05T06:28:35.219Z,-0.25
2019-02-05T06:29:28.353Z,-0.2
2019-02-05T06:30:27.676Z,-0.15
2019-02-05T06:31:27.575Z,-0.1
2019-02-05T06:32:27.513Z,-0.09
2019-02-05T06:33:27.740Z,-0.05
2019-02-05T06:34:27.571Z,-0.01
2019-02-05T06:35:28.021Z,-0.02
2019-02-05T06:36:27.573Z,-0.02
2019-02-05T06:37:27.685Z,-0.04
2019-02-05T06:38:27.534Z,-0.07
2019-02-05T06:39:27.695Z,-0.08
2019-02-05T06:40:27.722Z,-0.02
2019-02-05T06:41:27.658Z,-0.03
2019-02-05T06:42:27.692Z,-0.03
2019-02-05T06:43:30.005Z,0.01
2019-02-05T06:44:27.502Z,0.04
2019-02-05T06:45:27.576Z,0.06
2019-02-05T06:46:27.616Z,0.06
2019-02-05T06:47:27.513Z,0.11
2019-02-05T06:48:27.496Z,0.13
2019-02-05T06:49:27.506Z,0.15
2019-02-05T06:50:28.391Z,0.15
2019-02-05T06:51:27.550Z,0.17
2019-02-05T06:52:27.584Z,0.15
2019-02-05T06:53:27.487Z,0.15
2019-02-05T06:54:27.815Z,0.17
2019-02-05T06:55:27.497Z,0.16
2019-02-05T06:56:27.514Z,0.17
2019-02-05T06:57:27.504Z,0.11
2019-02-05T06:58:29.884Z,0.09
2019-02-05T06:59:27.559Z,0.07
2019-02-05T07:00:27.519Z,0.04
2019-02-05T07:01:27.497Z,0.04
2019-02-05T07:02:27.562Z,-0.01
2019-02-05T07:03:27.716Z,-0.07
2019-02-05T07:04:29.309Z,-0.07
2019-02-05T07:05:29.043Z,-0.09
2019-02-05T07:06:27.478Z,-0.11
2019-02-05T07:07:27.492Z,-0.14
2019-02-05T07:08:27.726Z,-0.15
2019-02-05T07:09:27.749Z,-0.2
2019-02-05T07:10:27.793Z,-0.18
2019-02-05T07:11:27.732Z,-0.17
2019-02-05T07:12:27.545Z,-0.13
2019-02-05T07:13:30.494Z,-0.14
2019-02-05T07:14:27.684Z,-0.13
2019-02-05T07:15:27.547Z,-0.12
2019-02-05T07:16:27.631Z,-0.13
2019-02-05T07:17:27.477Z,-0.13
2019-02-05T07:18:27.887Z,-0.12
2019-02-05T07:19:27.726Z,-0.13
2019-02-05T07:20:29.222Z,-0.16
2019-02-05T07:21:27.543Z,-0.13
2019-02-05T07:22:27.903Z,-0.12
2019-02-05T07:23:27.797Z,-0.11
2019-02-05T07:24:27.639Z,-0.1
2019-02-05T07:25:27.551Z,-0.11
2019-02-05T07:26:27.421Z,-0.1
2019-02-05T07:27:27.575Z,-0.11
2019-02-05T07:28:27.899Z,-0.09
2019-02-05T07:29:27.441Z,-0.12
2019-02-05T07:30:27.636Z,-0.13
2019-02-05T07:31:27.684Z,-0.13
2019-02-05T07:32:29.313Z,-0.17
2019-02-05T07:33:27.623Z,-0.13
2019-02-05T07:34:27.671Z,-0.13
2019-02-05T07:35:30.357Z,-0.13
2019-02-05T07:36:27.905Z,-0.15
2019-02-05T07:37:27.583Z,-0.14
2019-02-05T07:38:27.879Z,-0.17
2019-02-05T07:39:28.118Z,-0.17
2019-02-05T07:40:27.729Z,-0.15
2019-02-05T07:41:27.609Z,-0.11
2019-02-05T07:42:30.122Z,-0.11
2019-02-05T07:43:27.759Z,-0.1
2019-02-05T07:44:27.672Z,-0.1
2019-02-05T07:45:27.806Z,-0.06
2019-02-05T07:46:27.600Z,-0.06
2019-02-05T07:47:27.760Z,-0.05
2019-02-05T07:48:31.036Z,-0.03
2019-02-05T07:49:29.315Z,-0.03
2019-02-05T07:50:27.869Z,-0.03
2019-02-05T07:51:27.576Z,-0.01
2019-02-05T07:52:27.633Z,0.01
2019-02-05T07:53:27.522Z,0.02
2019-02-05T07:54:28.052Z,0.03
2019-02-05T07:55:27.667Z,0.07
2019-02-05T07:56:29.281Z,0.07
2019-02-05T07:57:27.431Z,0.07
2019-02-05T07:58:27.430Z,0.08
2019-02-05T07:59:27.710Z,0.1
2019-02-05T08:00:27.466Z,0.13
2019-02-05T08:01:27.792Z,0.14
2019-02-05T08:02:29.325Z,0.14
2019-02-05T08:03:27.887Z,0.17
2019-02-05T08:04:27.977Z,0.19
2019-02-05T08:05:27.638Z,0.21
2019-02-05T08:06:27.658Z,0.24
2019-02-05T08:07:27.501Z,0.26
2019-02-05T08:08:27.412Z,0.26
2019-02-05T08:09:27.597Z,0.26
2019-02-05T08:10:27.526Z,0.28
2019-02-05T08:11:28.059Z,0.25
2019-02-05T08:12:27.383Z,0.26
2019-02-05T08:13:27.559Z,0.24
2019-02-05T08:14:27.643Z,0.26
2019-02-05T08:15:27.442Z,0.25
2019-02-05T08:16:27.507Z,0.27
2019-02-05T08:17:29.432Z,0.3
2019-02-05T08:18:27.481Z,0.32
2019-02-05T08:19:27.358Z,0.35
2019-02-05T08:20:27.684Z,0.36
2019-02-05T08:21:29.251Z,0.38
2019-02-05T08:22:27.407Z,0.39
2019-02-05T08:23:27.345Z,0.43
2019-02-05T08:24:27.786Z,0.45
2019-02-05T08:25:27.511Z,0.46
2019-02-05T08:26:27.402Z,0.49
2019-02-05T08:27:27.496Z,0.51
2019-02-05T08:28:27.392Z,0.5
2019-02-05T08:29:27.366Z,0.56
2019-02-05T08:30:27.467Z,0.56
2019-02-05T08:31:27.664Z,0.58
2019-02-05T08:32:29.939Z,0.61
2019-02-05T08:33:27.456Z,0.65
2019-02-05T08:34:27.377Z,0.7
2019-02-05T08:35:27.396Z,0.72
2019-02-05T08:36:27.408Z,0.73
2019-02-05T08:37:27.589Z,0.77
2019-02-05T08:38:27.386Z,0.78
2019-02-05T08:39:29.576Z,0.8
2019-02-05T08:40:27.385Z,0.83
2019-02-05T08:41:27.449Z,0.86
2019-02-05T08:42:27.495Z,0.87
2019-02-05T08:43:27.353Z,0.9
2019-02-05T08:44:27.376Z,0.92
2019-02-05T08:45:27.371Z,0.92
2019-02-05T08:46:27.679Z,0.97
2019-02-05T08:47:27.396Z,0.98
2019-02-05T08:48:27.797Z,0.98
2019-02-05T08:49:27.390Z,1
2019-02-05T08:50:28.394Z,1.04
2019-02-05T08:51:27.400Z,1.07
2019-02-05T08:52:27.352Z,1.09
2019-02-05T08:53:27.620Z,1.1
2019-02-05T08:54:29.733Z,1.15
2019-02-05T08:55:30.160Z,1.17
2019-02-05T08:56:27.504Z,1.19
2019-02-05T08:57:27.324Z,1.21
2019-02-05T08:58:31.866Z,1.22
2019-02-05T08:59:28.324Z,1.24
2019-02-05T09:00:27.452Z,1.3
2019-02-05T09:01:29.872Z,1.31
2019-02-05T09:02:27.562Z,1.33
2019-02-05T09:03:27.485Z,1.35
2019-02-05T09:04:27.544Z,1.35
2019-02-05T09:05:27.491Z,1.39
2019-02-05T09:06:27.512Z,1.41
2019-02-05T09:07:27.825Z,1.44
2019-02-05T09:08:28.425Z,1.45
2019-02-05T09:09:29.174Z,1.46
2019-02-05T09:10:27.527Z,1.5
2019-02-05T09:11:27.377Z,1.51
2019-02-05T09:12:27.382Z,1.52
2019-02-05T09:13:27.326Z,1.54
2019-02-05T09:14:27.360Z,1.57
2019-02-05T09:15:30.323Z,1.59
2019-02-05T09:16:29.731Z,1.6
2019-02-05T09:17:27.321Z,1.63
2019-02-05T09:18:27.534Z,1.64
2019-02-05T09:19:27.696Z,1.66
2019-02-05T09:20:27.399Z,1.69
2019-02-05T09:21:27.605Z,1.74
2019-02-05T09:22:27.487Z,1.74
2019-02-05T09:23:29.663Z,1.7
2019-02-05T09:24:27.545Z,1.69
2019-02-05T09:25:27.365Z,1.71
2019-02-05T09:26:28.516Z,1.76
2019-02-05T09:27:27.355Z,1.73
2019-02-05T09:28:27.496Z,1.77
2019-02-05T09:29:33.988Z,1.78
2019-02-05T09:30:27.341Z,1.78
2019-02-05T09:31:27.259Z,1.79
2019-02-05T09:32:27.275Z,1.82
2019-02-05T09:33:27.327Z,1.85
2019-02-05T09:34:27.327Z,1.86
2019-02-05T09:35:27.358Z,1.91
2019-02-05T09:36:27.702Z,1.91
2019-02-05T09:37:27.834Z,1.92
2019-02-05T09:38:29.955Z,1.97
2019-02-05T09:39:27.269Z,2
2019-02-05T09:40:27.594Z,2.03
2019-02-05T09:41:27.847Z,2.06
2019-02-05T09:42:27.479Z,2.08
2019-02-05T09:43:27.527Z,2.1
2019-02-05T09:44:27.243Z,2.16
2019-02-05T09:45:29.707Z,2.16
2019-02-05T09:46:27.298Z,2.17
2019-02-05T09:47:27.377Z,2.2
2019-02-05T09:48:27.441Z,2.22
2019-02-05T09:49:27.517Z,2.22
2019-02-05T09:50:30.777Z,2.24
2019-02-05T09:51:27.590Z,2.28
2019-02-05T09:52:27.442Z,2.3
2019-02-05T09:53:27.485Z,2.3
2019-02-05T09:54:27.507Z,2.3
2019-02-05T09:55:27.514Z,2.32
2019-02-05T09:56:27.409Z,2.37
2019-02-05T09:57:27.356Z,2.42
2019-02-05T09:58:27.308Z,2.43
2019-02-05T09:59:27.417Z,2.44
2019-02-05T10:00:31.307Z,2.48
2019-02-05T10:01:28.290Z,2.49
2019-02-05T10:02:27.270Z,2.5
2019-02-05T10:03:27.251Z,2.5
2019-02-05T10:04:27.238Z,2.53
2019-02-05T10:05:27.357Z,2.58
2019-02-05T10:06:27.238Z,2.61
2019-02-05T10:07:29.134Z,2.63
2019-02-05T10:08:27.278Z,2.64
2019-02-05T10:09:27.304Z,2.68
2019-02-05T10:10:27.278Z,2.7
2019-02-05T10:11:27.255Z,2.73
2019-02-05T10:12:27.250Z,2.74
2019-02-05T10:13:27.331Z,2.75
2019-02-05T10:14:27.375Z,2.77
2019-02-05T10:15:27.374Z,2.79
2019-02-05T10:16:27.267Z,2.81
2019-02-05T10:17:27.251Z,2.82
2019-02-05T10:18:27.236Z,2.85
2019-02-05T10:19:27.241Z,2.86
2019-02-05T10:20:27.247Z,2.88
2019-02-05T10:21:27.309Z,2.9
2019-02-05T10:22:29.844Z,2.9
2019-02-05T10:23:27.280Z,2.95
2019-02-05T10:24:27.415Z,2.99
2019-02-05T10:25:27.242Z,3
2019-02-05T10:26:27.390Z,3.02
2019-02-05T10:27:27.234Z,3.06
2019-02-05T10:28:27.313Z,3.06
2019-02-05T10:29:29.005Z,3.09
2019-02-05T10:30:27.412Z,3.12
2019-02-05T10:31:27.246Z,3.14
2019-02-05T10:32:27.206Z,3.17
2019-02-05T10:33:27.251Z,3.17
2019-02-05T10:34:34.710Z,3.17
2019-02-05T10:35:27.364Z,3.2
2019-02-05T10:36:27.466Z,3.22
2019-02-05T10:37:29.363Z,3.25
2019-02-05T10:38:27.518Z,3.27
2019-02-05T10:39:27.353Z,3.31
2019-02-05T10:40:27.370Z,3.33
2019-02-05T10:41:27.419Z,3.37
2019-02-05T10:42:27.165Z,3.39
2019-02-05T10:43:27.423Z,3.42
2019-02-05T10:44:28.964Z,3.43
2019-02-05T10:45:27.873Z,3.44
2019-02-05T10:46:27.748Z,3.49
2019-02-05T10:47:28.884Z,3.51
2019-02-05T10:48:27.872Z,3.56
2019-02-05T10:49:27.192Z,3.59
2019-02-05T10:50:27.305Z,3.66
2019-02-05T10:51:29.054Z,3.7
2019-02-05T10:52:27.359Z,3.72
2019-02-05T10:53:27.630Z,3.75
2019-02-05T10:54:27.404Z,3.76
2019-02-05T10:55:27.174Z,3.79
2019-02-05T10:56:27.351Z,3.81
2019-02-05T10:57:27.920Z,3.83
2019-02-05T10:58:27.391Z,3.84
2019-02-05T10:59:29.586Z,3.87
2019-02-05T11:00:27.755Z,3.92
2019-02-05T11:01:27.334Z,3.95
2019-02-05T11:02:27.408Z,3.98
2019-02-05T11:03:28.462Z,4.03
2019-02-05T11:04:27.171Z,4.04
2019-02-05T11:05:27.156Z,4.02
2019-02-05T11:06:29.537Z,4.03
2019-02-05T11:07:27.387Z,4.02
2019-02-05T11:08:27.483Z,4.05
2019-02-05T11:09:27.564Z,4.07
2019-02-05T11:10:27.326Z,4.1
2019-02-05T11:11:27.600Z,4.14
2019-02-05T11:12:27.156Z,4.2
2019-02-05T11:13:27.234Z,4.21
2019-02-05T11:14:31.370Z,4.23
2019-02-05T11:15:27.575Z,4.28
2019-02-05T11:16:26.955Z,4.29
2019-02-05T11:17:27.343Z,4.34
2019-02-05T11:18:27.278Z,4.4
2019-02-05T11:19:27.140Z,4.44
2019-02-05T11:20:27.260Z,4.45
2019-02-05T11:21:29.821Z,4.38
2019-02-05T11:22:40.822Z,4.42
2019-02-05T11:23:27.489Z,4.48
2019-02-05T11:24:27.165Z,4.53
2019-02-05T11:25:27.434Z,4.6
2019-02-05T11:26:27.077Z,4.62
2019-02-05T11:27:27.732Z,4.64
2019-02-05T11:28:28.702Z,4.67
2019-02-05T11:29:27.492Z,4.73
2019-02-05T11:30:27.460Z,4.81
2019-02-05T11:31:27.257Z,4.86
2019-02-05T11:32:27.276Z,4.89
2019-02-05T11:33:27.172Z,4.94
2019-02-05T11:34:27.188Z,4.95
2019-02-05T11:35:28.979Z,4.97
2019-02-05T11:36:27.080Z,4.94
2019-02-05T11:37:27.246Z,4.95
2019-02-05T11:38:27.223Z,4.97
2019-02-05T11:39:27.157Z,5.02
2019-02-05T11:40:27.312Z,5.07
2019-02-05T11:41:27.262Z,5.04
2019-02-05T11:42:27.101Z,5.08
2019-02-05T11:43:29.696Z,5
2019-02-05T11:44:27.314Z,5.05
2019-02-05T11:45:27.467Z,5.08
2019-02-05T11:46:27.345Z,5.1
2019-02-05T11:47:27.134Z,5.16
2019-02-05T11:48:27.347Z,5.18
2019-02-05T11:49:27.090Z,5.21
2019-02-05T11:50:28.926Z,5.24
2019-02-05T11:51:27.384Z,5.28
2019-02-05T11:52:27.580Z,5.32
2019-02-05T11:53:27.891Z,5.36
2019-02-05T11:54:27.084Z,5.39
2019-02-05T11:55:27.447Z,5.44
2019-02-05T11:56:27.435Z,5.48
2019-02-05T11:57:27.421Z,5.33
2019-02-05T11:58:27.640Z,5.28
2019-02-05T11:59:27.585Z,5.37
2019-02-05T12:00:33.472Z,5.44
2019-02-05T12:01:39.644Z,5.45
2019-02-05T12:02:27.323Z,5.47
2019-02-05T12:03:27.572Z,5.56
2019-02-05T12:04:27.319Z,5.6
2019-02-05T12:05:29.757Z,5.64
2019-02-05T12:06:27.388Z,5.67
2019-02-05T12:07:27.428Z,5.71
2019-02-05T12:08:27.578Z,5.77
2019-02-05T12:09:27.659Z,5.81
2019-02-05T12:10:27.104Z,5.82
2019-02-05T12:11:27.607Z,5.88
2019-02-05T12:12:29.035Z,5.88
2019-02-05T12:13:27.256Z,5.78
2019-02-05T12:14:27.110Z,5.79
2019-02-05T12:15:27.661Z,5.84
2019-02-05T12:16:27.263Z,5.88
2019-02-05T12:17:27.781Z,5.92
2019-02-05T12:18:27.388Z,5.96
2019-02-05T12:19:27.650Z,6.01
2019-02-05T12:20:27.751Z,6.04
2019-02-05T12:21:27.047Z,6.11
2019-02-05T12:22:27.308Z,6.07
2019-02-05T12:23:27.213Z,6.12
2019-02-05T12:24:27.316Z,6.15
2019-02-05T12:25:27.080Z,6.17
2019-02-05T12:26:27.052Z,6.21
2019-02-05T12:27:27.035Z,6.23
2019-02-05T12:28:27.265Z,6.29
2019-02-05T12:29:27.048Z,6.33
2019-02-05T12:30:27.035Z,6.39
2019-02-05T12:31:27.287Z,6.46
2019-02-05T12:32:26.983Z,6.47
2019-02-05T12:33:27.862Z,6.56
2019-02-05T12:34:29.184Z,6.55
2019-02-05T12:35:27.725Z,6.58
2019-02-05T12:36:27.908Z,6.6
2019-02-05T12:37:27.228Z,6.6
2019-02-05T12:38:27.379Z,6.64
2019-02-05T12:39:27.232Z,6.67
2019-02-05T12:40:27.209Z,6.69
2019-02-05T12:41:27.461Z,6.74
2019-02-05T12:42:27.154Z,6.78
2019-02-05T12:43:27.287Z,6.85
2019-02-05T12:44:27.193Z,6.91
2019-02-05T12:45:28.809Z,6.86
2019-02-05T12:46:26.986Z,6.77
2019-02-05T12:47:27.068Z,6.74
2019-02-05T12:48:26.925Z,6.83
2019-02-05T12:49:29.197Z,6.88
2019-02-05T12:50:27.012Z,6.92
2019-02-05T12:51:27.205Z,6.93
2019-02-05T12:52:28.792Z,6.97
2019-02-05T12:53:27.210Z,7.04
2019-02-05T12:54:27.304Z,7.08
2019-02-05T12:55:27.132Z,7.08
2019-02-05T12:56:27.161Z,7.13
2019-02-05T12:57:29.787Z,7.15
2019-02-05T12:58:27.333Z,7.18
2019-02-05T12:59:27.046Z,7.19
2019-02-05T13:00:27.002Z,7.19
2019-02-05T13:01:27.450Z,7.2
2019-02-05T13:02:26.897Z,7.17
2019-02-05T13:03:26.975Z,7.01
2019-02-05T13:04:28.043Z,7.02
2019-02-05T13:05:26.965Z,7.05
2019-02-05T13:06:26.974Z,7.1
2019-02-05T13:07:27.003Z,7.11
2019-02-05T13:08:27.023Z,7.13
2019-02-05T13:09:26.916Z,7.18
2019-02-05T13:10:26.897Z,7.22
2019-02-05T13:11:26.935Z,7.23
2019-02-05T13:12:29.232Z,7.26
2019-02-05T13:13:26.883Z,7.27
2019-02-05T13:14:26.900Z,7.26
2019-02-05T13:15:27.040Z,7.3
2019-02-05T13:16:27.222Z,7.35
2019-02-05T13:17:26.860Z,7.29